Time;durP1;ratioP1;P1;durP2;ratioP2;P2;SDS_P1;SDS_P2;PMS_P1;PMS_P2;Temp;Humidity;BMP_temperature;BMP_pressure;BME280_temperature;BME280_humidity;BME280_pressure;Samples;Min_cycle;Max_cycle;Signal;HPM_P1;HPM_P2
2022/04/01 00:02:03;;;;;;;1.60;1.50;;;18.30;39.00;;;;;;5042482;28;20226;-57
2022/04/01 00:04:29;;;;;;;1.50;1.40;;;18.30;39.00;;;;;;5041655;28;21103;-57
2022/04/01 00:06:55;;;;;;;1.80;1.70;;;18.30;39.00;;;;;;5045289;28;20451;-58
2022/04/01 00:09:20;;;;;;;1.87;1.63;;;18.30;39.00;;;;;;5037980;28;20584;-58
2022/04/01 00:11:46;;;;;;;2.07;1.97;;;18.30;39.00;;;;;;5044484;28;20341;-57
2022/04/01 00:14:11;;;;;;;1.70;1.60;;;18.30;39.00;;;;;;5043069;28;20242;-58
2022/04/01 00:16:37;;;;;;;1.67;1.57;;;18.30;39.00;;;;;;5039198;28;20684;-58
2022/04/01 00:19:03;;;;;;;1.83;1.60;;;18.30;39.00;;;;;;5040078;28;20239;-58
2022/04/01 00:21:29;;;;;;;1.60;1.50;;;18.30;39.00;;;;;;5039336;28;20219;-58
2022/04/01 00:23:54;;;;;;;1.93;1.60;;;18.30;38.90;;;;;;5044186;28;20955;-58
2022/04/01 00:26:20;;;;;;;1.50;1.40;;;18.30;39.00;;;;;;5038601;28;20215;-57
2022/04/01 00:28:46;;;;;;;1.80;1.70;;;18.30;39.00;;;;;;5044099;28;20219;-57
2022/04/01 00:31:11;;;;;;;1.70;1.60;;;18.30;39.00;;;;;;5038389;28;20219;-59
2022/04/01 00:33:37;;;;;;;1.70;1.60;;;18.30;39.00;;;;;;5036520;28;20663;-58
2022/04/01 00:36:03;;;;;;;1.60;1.50;;;18.30;39.00;;;;;;5038696;28;20223;-58
2022/04/01 00:38:29;;;;;;;1.60;1.50;;;18.30;38.90;;;;;;5039641;28;20219;-58
2022/04/01 00:40:56;;;;;;;1.70;1.60;;;18.30;39.00;;;;;;5037971;28;20760;-57
2022/04/01 00:43:30;;;;;;;1.50;1.40;;;18.30;39.00;;;;;;5039667;28;20911;-58
2022/04/01 00:45:57;;;;;;;1.73;1.63;;;18.30;39.00;;;;;;5040076;28;20778;-58
2022/04/01 00:48:23;;;;;;;2.43;1.50;;;18.30;38.90;;;;;;5040415;28;20429;-60
2022/04/01 00:50:49;;;;;;;2.80;1.60;;;18.30;39.00;;;;;;5040697;28;20978;-59
2022/04/01 00:53:17;;;;;;;1.53;1.43;;;18.30;39.00;;;;;;5039211;28;20493;-58
2022/04/01 00:55:43;;;;;;;1.60;1.50;;;18.30;38.90;;;;;;5047138;28;20329;-58
2022/04/01 00:58:10;;;;;;;2.07;1.97;;;18.30;39.00;;;;;;5041014;28;21030;-58
2022/04/01 01:00:36;;;;;;;1.50;1.40;;;18.30;38.90;;;;;;5037112;28;20242;-58
2022/04/01 01:03:05;;;;;;;1.80;1.70;;;18.30;38.90;;;;;;5039599;28;20445;-58
2022/04/01 01:05:31;;;;;;;1.83;1.73;;;18.30;38.90;;;;;;5035355;28;20853;-58
2022/04/01 01:07:57;;;;;;;1.60;1.50;;;18.30;38.90;;;;;;5039949;28;20547;-59
2022/04/01 01:10:24;;;;;;;1.77;1.67;;;18.30;38.90;;;;;;5040432;28;21323;-58
2022/04/01 01:12:51;;;;;;;1.77;1.67;;;18.30;38.90;;;;;;5039080;28;20514;-57
2022/04/01 01:15:18;;;;;;;1.80;1.70;;;18.30;38.90;;;;;;5037845;28;20453;-58
2022/04/01 01:17:45;;;;;;;1.70;1.60;;;18.30;38.90;;;;;;5040956;28;20463;-58
2022/04/01 01:20:14;;;;;;;2.00;1.90;;;18.30;38.90;;;;;;5040816;28;20849;-58
2022/04/01 01:22:41;;;;;;;1.60;1.50;;;18.30;38.90;;;;;;5040878;28;20991;-58
2022/04/01 01:25:11;;;;;;;1.80;1.70;;;18.30;39.60;;;;;;5040405;28;20466;-58
2022/04/01 01:27:37;;;;;;;1.77;1.67;;;18.30;38.90;;;;;;5043861;28;20447;-57
2022/04/01 01:30:05;;;;;;;1.70;1.60;;;18.30;38.90;;;;;;5037986;28;20859;-59
2022/04/01 01:32:32;;;;;;;1.80;1.70;;;18.30;38.80;;;;;;5043514;28;20245;-58
2022/04/01 01:34:59;;;;;;;1.70;1.60;;;18.30;38.90;;;;;;5042954;28;20516;-58
2022/04/01 01:37:25;;;;;;;1.77;1.67;;;18.30;38.80;;;;;;5040592;28;20462;-58
2022/04/01 01:39:51;;;;;;;1.93;1.83;;;18.30;38.80;;;;;;5037790;28;20973;-58
2022/04/01 01:42:17;;;;;;;2.10;1.90;;;18.30;38.80;;;;;;5035088;28;20676;-58
2022/04/01 01:44:43;;;;;;;1.60;1.50;;;18.30;38.80;;;;;;5039164;28;20433;-58
2022/04/01 01:47:08;;;;;;;1.90;1.80;;;18.30;38.80;;;;;;5032729;28;20318;-59
2022/04/01 01:49:34;;;;;;;1.70;1.60;;;18.30;38.80;;;;;;5038983;28;20229;-58
2022/04/01 01:54:49;;;;;;;1.67;1.57;;;18.30;38.80;;;;;;5037117;28;20229;-58
2022/04/01 01:57:23;;;;;;;1.60;1.50;;;18.20;38.70;;;;;;5038607;28;20448;-58
2022/04/01 01:59:50;;;;;;;1.80;1.70;;;18.20;38.70;;;;;;5038002;28;20423;-59
2022/04/01 02:02:17;;;;;;;1.67;1.57;;;18.20;38.70;;;;;;5037451;28;20785;-58
2022/04/01 02:04:43;;;;;;;1.50;1.40;;;18.20;38.70;;;;;;5042715;28;20943;-58
2022/04/01 02:07:10;;;;;;;1.80;1.70;;;18.20;38.80;;;;;;5040461;28;20946;-58
2022/04/01 02:09:46;;;;;;;1.70;1.60;;;18.20;38.70;;;;;;5040880;28;20463;-58
2022/04/01 02:12:13;;;;;;;1.97;1.87;;;18.20;38.70;;;;;;5035256;28;20456;-59
2022/04/01 02:14:38;;;;;;;1.40;1.30;;;18.20;38.70;;;;;;5040935;28;20784;-59
2022/04/01 02:17:04;;;;;;;1.70;1.60;;;18.20;38.70;;;;;;5037396;28;20530;-58
2022/04/01 02:19:31;;;;;;;1.70;1.60;;;18.30;39.60;;;;;;5038433;28;20318;-58
2022/04/01 02:21:56;;;;;;;1.70;1.60;;;18.30;38.80;;;;;;5038149;28;20215;-58
2022/04/01 02:24:23;;;;;;;1.80;1.70;;;18.20;38.70;;;;;;5034496;28;20782;-59
2022/04/01 02:26:50;;;;;;;1.60;1.50;;;18.20;38.70;;;;;;5043550;28;20234;-58
2022/04/01 02:29:18;;;;;;;1.70;1.60;;;18.20;38.70;;;;;;5038346;28;20493;-59
2022/04/01 02:31:45;;;;;;;1.80;1.70;;;18.20;38.70;;;;;;5039861;28;20423;-58
2022/04/01 02:34:11;;;;;;;1.77;1.67;;;18.20;38.70;;;;;;5036685;28;20463;-58
2022/04/01 02:36:38;;;;;;;1.60;1.50;;;18.20;38.60;;;;;;5039742;28;20483;-60
2022/04/01 02:39:05;;;;;;;1.80;1.70;;;18.20;39.50;;;;;;5039718;28;20302;-58
2022/04/01 02:41:31;;;;;;;1.90;1.80;;;18.20;38.60;;;;;;5036380;28;20786;-58
2022/04/01 02:44:08;;;;;;;1.47;1.37;;;18.20;38.60;;;;;;5042337;28;20415;-58
2022/04/01 02:46:38;;;;;;;1.70;1.60;;;18.20;38.60;;;;;;5038735;28;20433;-58
2022/04/01 02:49:06;;;;;;;1.87;1.77;;;18.20;38.60;;;;;;5036041;28;20451;-58
2022/04/01 02:51:39;;;;;;;1.70;1.60;;;18.20;38.60;;;;;;5041101;28;20454;-58
2022/04/01 02:54:06;;;;;;;2.00;1.90;;;18.20;38.60;;;;;;5036489;28;20507;-58
2022/04/01 02:56:33;;;;;;;1.77;1.40;;;18.20;38.60;;;;;;5036219;28;20497;-60
2022/04/01 02:59:00;;;;;;;1.60;1.50;;;18.20;38.60;;;;;;5037800;28;20430;-58
2022/04/01 03:01:29;;;;;;;2.43;1.90;;;18.20;38.60;;;;;;5036382;28;20486;-58
2022/04/01 03:03:55;;;;;;;1.90;1.80;;;18.20;38.60;;;;;;5038268;28;20414;-58
2022/04/01 03:06:21;;;;;;;1.80;1.70;;;18.20;38.60;;;;;;5040044;28;20452;-58
2022/04/01 03:08:50;;;;;;;1.90;1.80;;;18.20;38.60;;;;;;5041891;28;20974;-59
2022/04/01 03:11:17;;;;;;;1.80;1.70;;;18.20;38.60;;;;;;5037799;28;20586;-58
2022/04/01 03:13:43;;;;;;;1.70;1.60;;;18.20;38.60;;;;;;5038638;28;20431;-58
2022/04/01 03:16:09;;;;;;;1.83;1.73;;;18.20;38.60;;;;;;5039857;28;20436;-58
2022/04/01 03:18:40;;;;;;;2.23;2.13;;;18.20;38.50;;;;;;5035386;28;20439;-58
2022/04/01 03:21:09;;;;;;;1.90;1.80;;;18.20;38.50;;;;;;5036622;28;20305;-57
2022/04/01 03:23:40;;;;;;;1.50;1.40;;;18.20;38.50;;;;;;5039324;28;20410;-58
2022/04/01 03:26:07;;;;;;;1.70;1.60;;;18.20;38.50;;;;;;5047855;28;20483;-58
2022/04/01 03:28:34;;;;;;;1.80;1.70;;;18.20;38.50;;;;;;5040879;28;20992;-58
2022/04/01 03:31:03;;;;;;;1.97;1.87;;;18.20;38.50;;;;;;5039068;28;20513;-58
2022/04/01 03:33:29;;;;;;;1.80;1.70;;;18.20;38.50;;;;;;5038743;28;20425;-58
2022/04/01 03:35:54;;;;;;;1.67;1.57;;;18.20;39.20;;;;;;5042281;28;20422;-57
2022/04/01 03:38:20;;;;;;;1.60;1.50;;;18.20;38.40;;;;;;5043513;28;20454;-58
2022/04/01 03:40:49;;;;;;;2.03;1.60;;;18.20;38.40;;;;;;5040400;28;20231;-58
2022/04/01 03:43:15;;;;;;;1.77;1.67;;;18.20;38.30;;;;;;5037458;28;20231;-58
2022/04/01 03:45:49;;;;;;;1.90;1.80;;;18.20;38.40;;;;;;5043824;28;20561;-60
2022/04/01 03:48:21;;;;;;;1.70;1.60;;;18.20;38.30;;;;;;5043405;28;20238;-58
2022/04/01 03:50:50;;;;;;;1.70;1.60;;;18.20;38.30;;;;;;5041424;28;20816;-58
2022/04/01 03:53:22;;;;;;;1.90;1.80;;;18.20;38.40;;;;;;5039679;28;20430;-57
2022/04/01 03:55:49;;;;;;;1.90;1.80;;;18.20;38.30;;;;;;5041242;28;20521;-58
2022/04/01 03:58:18;;;;;;;1.80;1.70;;;18.20;38.30;;;;;;5041748;28;20443;-57
2022/04/01 04:00:43;;;;;;;1.70;1.60;;;18.20;38.30;;;;;;5040004;28;20899;-58
2022/04/01 04:03:10;;;;;;;1.80;1.70;;;18.20;38.30;;;;;;5044870;28;20418;-57
2022/04/01 04:05:39;;;;;;;2.20;2.10;;;18.20;38.30;;;;;;5042082;28;20582;-57
2022/04/01 04:08:06;;;;;;;1.73;1.63;;;18.20;38.20;;;;;;5043519;28;20760;-58
2022/04/01 04:10:34;;;;;;;1.90;1.80;;;18.20;38.20;;;;;;5040082;28;20414;-58
2022/04/01 04:13:04;;;;;;;1.90;1.80;;;18.20;38.20;;;;;;5039244;28;20510;-57
2022/04/01 04:15:51;;;;;;;1.70;1.60;;;18.20;38.20;;;;;;5038788;28;20507;-58
2022/04/01 04:18:18;;;;;;;1.70;1.60;;;18.20;38.20;;;;;;5041968;28;20472;-58
2022/04/01 04:20:59;;;;;;;1.80;1.70;;;18.20;38.30;;;;;;5043650;28;20420;-58
2022/04/01 04:23:34;;;;;;;1.90;1.80;;;18.20;38.30;;;;;;5042621;28;20449;-57
2022/04/01 04:26:11;;;;;;;1.80;1.70;;;18.20;38.20;;;;;;5037087;28;20447;-59
2022/04/01 04:28:39;;;;;;;1.80;1.70;;;18.20;38.20;;;;;;5040313;28;20434;-59
2022/04/01 04:31:08;;;;;;;1.70;1.60;;;18.20;38.20;;;;;;5043652;28;20470;-58
2022/04/01 04:33:41;;;;;;;2.20;2.10;;;18.20;38.10;;;;;;5039142;28;20459;-57
2022/04/01 04:36:10;;;;;;;1.60;1.50;;;18.20;38.10;;;;;;5041041;28;20422;-57
2022/04/01 04:38:37;;;;;;;1.70;1.60;;;18.20;38.10;;;;;;5042603;28;20418;-57
2022/04/01 04:41:08;;;;;;;1.50;1.40;;;18.20;38.00;;;;;;5039027;28;20449;-57
2022/04/01 04:43:38;;;;;;;1.90;1.80;;;18.30;37.80;;;;;;5041336;28;20418;-60
2022/04/01 04:46:05;;;;;;;1.50;1.40;;;18.30;37.70;;;;;;5040326;28;20497;-58
2022/04/01 04:48:33;;;;;;;1.90;1.80;;;18.30;37.70;;;;;;5042927;28;20451;-59
2022/04/01 04:51:02;;;;;;;1.90;1.70;;;18.30;37.70;;;;;;5041732;28;20479;-59
2022/04/01 04:53:31;;;;;;;1.60;1.50;;;18.40;37.80;;;;;;5040046;28;20446;-60
2022/04/01 04:56:02;;;;;;;1.80;1.70;;;18.40;37.80;;;;;;5034377;28;20827;-59
2022/04/01 04:58:39;;;;;;;1.50;1.40;;;18.40;37.90;;;;;;5040447;28;20438;-58
2022/04/01 05:01:17;;;;;;;1.67;1.57;;;18.40;37.90;;;;;;5038440;28;20416;-59
2022/04/01 05:03:43;;;;;;;1.60;1.50;;;18.40;37.80;;;;;;5041295;28;20441;-58
2022/04/01 05:06:11;;;;;;;1.77;1.67;;;18.40;37.80;;;;;;5040423;28;20539;-59
2022/04/01 05:08:50;;;;;;;1.60;1.50;;;18.40;37.80;;;;;;5036573;28;20223;-58
2022/04/01 05:11:25;;;;;;;1.70;1.60;;;18.40;37.80;;;;;;5036765;28;20483;-57
2022/04/01 05:14:05;;;;;;;2.33;1.60;;;18.40;37.80;;;;;;5037484;28;20472;-57
2022/04/01 05:16:53;;;;;;;1.50;1.40;;;18.40;37.80;;;;;;5038361;28;20462;-59
2022/04/01 05:19:27;;;;;;;1.50;1.40;;;18.40;37.80;;;;;;5040489;28;20446;-59
2022/04/01 05:22:02;;;;;;;1.60;1.50;;;18.40;37.80;;;;;;5037208;28;20447;-58
2022/04/01 05:24:34;;;;;;;1.60;1.50;;;18.40;37.80;;;;;;5039486;28;20439;-59
2022/04/01 05:27:02;;;;;;;1.30;1.20;;;18.40;37.80;;;;;;5026035;28;20443;-58
2022/04/01 05:29:36;;;;;;;1.40;1.30;;;18.40;37.80;;;;;;5038408;28;20415;-59
2022/04/01 05:32:07;;;;;;;1.50;1.40;;;18.40;37.80;;;;;;5036108;28;20514;-60
2022/04/01 05:34:47;;;;;;;2.50;1.50;;;18.40;37.80;;;;;;5040250;28;20443;-59
2022/04/01 05:37:15;;;;;;;1.73;1.30;;;18.40;37.80;;;;;;5040722;28;20444;-58
2022/04/01 05:39:46;;;;;;;1.50;1.40;;;18.40;37.80;;;;;;5038575;28;20895;-60
2022/04/01 05:42:12;;;;;;;1.80;1.70;;;18.40;37.80;;;;;;5037286;28;20777;-59
2022/04/01 05:44:38;;;;;;;2.13;1.30;;;18.40;38.60;;;;;;5034555;28;20526;-59
2022/04/01 05:47:04;;;;;;;2.10;1.50;;;18.40;37.80;;;;;;5040185;28;20229;-59
2022/04/01 05:49:30;;;;;;;1.50;1.40;;;18.40;37.80;;;;;;5041794;28;20459;-60
2022/04/01 05:51:57;;;;;;;1.70;1.60;;;18.40;37.80;;;;;;5039065;28;20414;-60
2022/04/01 05:54:25;;;;;;;2.53;1.40;;;18.40;37.80;;;;;;5040251;28;20509;-62
2022/04/01 05:56:51;;;;;;;1.63;1.53;;;18.40;37.80;;;;;;5036980;28;20562;-59
2022/04/01 05:59:18;;;;;;;1.40;1.30;;;18.40;37.80;;;;;;5041803;28;20861;-58
2022/04/01 06:02:03;;;;;;;2.43;1.40;;;18.40;37.80;;;;;;5041548;28;20275;-58
2022/04/01 06:04:58;;;;;;;2.50;1.60;;;18.40;37.80;;;;;;5036896;28;20469;-58
2022/04/01 06:07:36;;;;;;;1.43;1.30;;;18.40;37.80;;;;;;5037167;28;20421;-59
2022/04/01 06:10:09;;;;;;;1.63;1.53;;;18.40;37.80;;;;;;5039542;28;20440;-58
2022/04/01 06:12:59;;;;;;;2.07;1.37;;;18.40;37.80;;;;;;5039632;28;20427;-59
2022/04/01 06:15:51;;;;;;;1.50;1.40;;;18.40;37.80;;;;;;5041975;28;20855;-58
2022/04/01 06:19:02;;;;;;;1.60;1.50;;;18.40;37.80;;;;;;5036270;28;20865;-58
2022/04/01 06:21:31;;;;;;;1.90;1.53;;;18.40;37.80;;;;;;4983356;28;20447;-58
2022/04/01 06:24:09;;;;;;;1.80;1.60;;;18.40;37.80;;;;;;5040994;28;20423;-58
2022/04/01 06:26:51;;;;;;;1.50;1.40;;;18.40;37.80;;;;;;5037972;28;20488;-58
2022/04/01 06:29:36;;;;;;;2.50;1.50;;;18.40;37.80;;;;;;5040782;28;20438;-58
2022/04/01 06:32:07;;;;;;;2.63;1.53;;;18.40;37.80;;;;;;5037209;28;20452;-58
2022/04/01 06:34:54;;;;;;;2.03;1.67;;;18.40;37.80;;;;;;5033680;28;20427;-58
2022/04/01 06:37:28;;;;;;;1.40;1.30;;;18.40;37.80;;;;;;5040757;28;20538;-57
2022/04/01 06:40:12;;;;;;;3.13;1.27;;;18.40;37.90;;;;;;5040176;28;20443;-59
2022/04/01 06:42:39;;;;;;;2.47;1.37;;;18.40;37.80;;;;;;5036470;28;20773;-59
2022/04/01 06:45:08;;;;;;;2.10;1.70;;;18.40;37.80;;;;;;5039938;28;20463;-58
2022/04/01 06:47:39;;;;;;;1.60;1.50;;;18.40;37.80;;;;;;5039505;28;20458;-58
2022/04/01 06:50:05;;;;;;;1.43;1.33;;;18.40;37.80;;;;;;5037888;28;20763;-59
2022/04/01 06:52:31;;;;;;;1.50;1.40;;;18.40;37.80;;;;;;5035350;28;20462;-59
2022/04/01 06:54:57;;;;;;;1.83;1.73;;;18.40;37.80;;;;;;5034548;28;21072;-59
2022/04/01 06:57:24;;;;;;;1.37;1.27;;;18.40;37.80;;;;;;5038646;28;20516;-58
2022/04/01 06:59:50;;;;;;;6.90;1.33;;;18.40;37.80;;;;;;5039130;28;20461;-59
2022/04/01 07:02:16;;;;;;;1.70;1.60;;;18.40;37.80;;;;;;5044617;28;20489;-59
2022/04/01 07:04:41;;;;;;;1.73;1.37;;;18.40;37.80;;;;;;5041467;28;20455;-58
2022/04/01 07:07:08;;;;;;;2.23;1.53;;;18.40;37.80;;;;;;5035582;28;20318;-58
2022/04/01 07:09:35;;;;;;;1.63;1.47;;;18.40;37.80;;;;;;5040195;28;20490;-58
2022/04/01 07:12:01;;;;;;;1.43;1.33;;;18.50;37.90;;;;;;5039873;28;20448;-58
2022/04/01 07:14:27;;;;;;;1.60;1.50;;;18.40;37.80;;;;;;5044299;28;20449;-59
2022/04/01 07:17:00;;;;;;;1.60;1.40;;;18.40;37.80;;;;;;5038246;28;20837;-59
2022/04/01 07:19:26;;;;;;;1.50;1.40;;;18.40;37.80;;;;;;5038813;28;20439;-59
2022/04/01 07:21:51;;;;;;;2.80;1.50;;;18.40;37.80;;;;;;5042844;28;20863;-59
2022/04/01 07:24:17;;;;;;;1.40;1.30;;;18.50;37.90;;;;;;5041383;28;20306;-57
2022/04/01 07:26:44;;;;;;;3.50;1.40;;;18.50;37.90;;;;;;5039783;28;20226;-60
2022/04/01 07:29:13;;;;;;;6.77;1.30;;;18.40;37.80;;;;;;5039139;28;20767;-58
2022/04/01 07:34:38;;;;;;;1.30;1.20;;;18.50;37.90;;;;;;5042048;28;20491;-59
2022/04/01 07:37:08;;;;;;;1.60;1.50;;;18.50;38.70;;;;;;5043334;28;20459;-58
2022/04/01 07:39:33;;;;;;;1.60;1.50;;;18.40;37.80;;;;;;5041512;28;20499;-58
2022/04/01 07:42:00;;;;;;;1.70;1.60;;;18.50;37.90;;;;;;5036168;28;21008;-58
2022/04/01 07:44:26;;;;;;;1.60;1.30;;;18.50;37.90;;;;;;5042348;28;20234;-58
2022/04/01 07:46:52;;;;;;;2.13;1.97;;;18.50;37.90;;;;;;5040984;28;20465;-59
2022/04/01 07:49:18;;;;;;;1.50;1.40;;;18.50;37.90;;;;;;5044396;28;20431;-58
2022/04/01 07:51:44;;;;;;;1.87;1.30;;;18.50;37.90;;;;;;5046205;28;20647;-58
2022/04/01 07:54:11;;;;;;;1.43;1.33;;;18.50;37.90;;;;;;5040548;28;20427;-58
2022/04/01 07:56:40;;;;;;;1.40;1.30;;;18.50;37.90;;;;;;5040567;28;20530;-59
2022/04/01 07:59:06;;;;;;;1.57;1.47;;;18.50;37.90;;;;;;5039709;28;20410;-59
2022/04/01 08:01:34;;;;;;;1.60;1.30;;;18.50;37.90;;;;;;5040313;28;20425;-59
2022/04/01 08:03:59;;;;;;;1.53;1.43;;;18.50;37.90;;;;;;5043109;28;20442;-58
2022/04/01 08:06:25;;;;;;;1.40;1.30;;;18.50;37.80;;;;;;5043676;28;20422;-58
2022/04/01 08:08:51;;;;;;;1.80;1.53;;;18.50;37.80;;;;;;5040284;28;20762;-59
2022/04/01 08:11:16;;;;;;;1.50;1.40;;;18.50;38.60;;;;;;5036435;28;20616;-58
2022/04/01 08:13:42;;;;;;;2.40;1.47;;;18.50;37.80;;;;;;5037409;28;20691;-62
2022/04/01 08:16:08;;;;;;;1.40;1.30;;;18.50;37.80;;;;;;5039305;28;20262;-58
2022/04/01 08:18:34;;;;;;;1.67;1.57;;;18.50;37.80;;;;;;5040375;28;20234;-58
2022/04/01 08:21:00;;;;;;;1.70;1.43;;;18.50;37.80;;;;;;5041615;28;20444;-59
2022/04/01 08:23:26;;;;;;;1.30;1.20;;;18.50;37.80;;;;;;5039400;28;20227;-58
2022/04/01 08:25:51;;;;;;;1.60;1.50;;;18.50;37.80;;;;;;5041687;28;20222;-58
2022/04/01 08:28:17;;;;;;;4.43;1.47;;;18.50;37.80;;;;;;5038412;28;20427;-59
2022/04/01 08:30:43;;;;;;;1.67;1.57;;;18.50;37.70;;;;;;5042693;28;20215;-59
2022/04/01 08:33:08;;;;;;;4.60;1.60;;;18.50;37.70;;;;;;5042581;28;20254;-59
2022/04/01 08:35:35;;;;;;;1.40;1.30;;;18.50;37.80;;;;;;5038538;28;20674;-58
2022/04/01 08:38:01;;;;;;;1.50;1.40;;;18.50;37.70;;;;;;5040116;28;20227;-60
2022/04/01 08:40:29;;;;;;;1.50;1.40;;;18.50;37.70;;;;;;5039375;28;20422;-59
2022/04/01 08:42:55;;;;;;;1.33;1.23;;;18.50;37.60;;;;;;5040931;28;20430;-59
2022/04/01 08:45:21;;;;;;;1.50;1.40;;;18.50;37.70;;;;;;5037425;28;20456;-58
2022/04/01 08:47:48;;;;;;;1.60;1.50;;;18.40;37.60;;;;;;5037535;28;20223;-59
2022/04/01 08:50:13;;;;;;;1.30;1.20;;;18.50;37.60;;;;;;5041850;28;20467;-58
2022/04/01 08:52:40;;;;;;;3.27;1.50;;;18.50;37.60;;;;;;5040381;28;21305;-58
2022/04/01 08:55:08;;;;;;;2.20;1.47;;;18.50;37.60;;;;;;5039698;28;20223;-58
2022/04/01 08:57:39;;;;;;;1.40;1.30;;;18.50;37.60;;;;;;5040614;28;20554;-58
2022/04/01 09:00:13;;;;;;;2.60;1.43;;;18.40;37.60;;;;;;5036505;28;20558;-59
2022/04/01 09:02:40;;;;;;;1.43;1.33;;;18.40;37.50;;;;;;5038232;28;20452;-58
2022/04/01 09:05:07;;;;;;;1.50;1.40;;;18.40;37.50;;;;;;5037539;28;20434;-58
2022/04/01 09:07:34;;;;;;;1.40;1.30;;;18.40;37.50;;;;;;5037419;28;20422;-59
2022/04/01 09:10:02;;;;;;;1.73;1.63;;;18.50;37.60;;;;;;5042288;28;20498;-58
2022/04/01 09:12:29;;;;;;;1.53;1.43;;;18.50;37.50;;;;;;5043881;28;20930;-58
2022/04/01 09:14:55;;;;;;;1.50;1.40;;;18.40;37.50;;;;;;5037985;28;20417;-58
2022/04/01 09:17:22;;;;;;;1.80;1.40;;;18.40;37.50;;;;;;5036389;28;20442;-59
2022/04/01 09:19:48;;;;;;;1.73;1.63;;;18.40;37.50;;;;;;5036362;28;20981;-58
2022/04/01 09:22:18;;;;;;;1.60;1.50;;;18.40;37.50;;;;;;5038464;28;20423;-58
2022/04/01 09:24:58;;;;;;;1.60;1.50;;;18.40;37.50;;;;;;5039501;28;20527;-57
2022/04/01 09:27:38;;;;;;;1.50;1.40;;;18.40;37.50;;;;;;5040267;28;20421;-58
2022/04/01 09:30:05;;;;;;;2.30;1.63;;;18.40;37.50;;;;;;5037496;28;20900;-58
2022/04/01 09:32:39;;;;;;;1.40;1.30;;;18.40;37.50;;;;;;5038524;28;20435;-58
2022/04/01 09:35:06;;;;;;;1.77;1.30;;;18.40;37.60;;;;;;5036839;28;20444;-57
2022/04/01 09:37:40;;;;;;;1.57;1.47;;;18.40;37.50;;;;;;5041881;28;20435;-58
2022/04/01 09:40:06;;;;;;;1.50;1.40;;;18.40;37.50;;;;;;5038763;28;20932;-58
2022/04/01 09:42:33;;;;;;;1.83;1.30;;;18.40;37.50;;;;;;5039906;28;20441;-58
2022/04/01 09:44:59;;;;;;;1.43;1.33;;;18.40;37.50;;;;;;5038107;28;20786;-58
2022/04/01 09:47:25;;;;;;;1.90;1.80;;;18.40;37.50;;;;;;5033984;28;20838;-58
2022/04/01 09:49:53;;;;;;;1.50;1.40;;;18.40;37.50;;;;;;5037389;28;20539;-59
2022/04/01 09:52:20;;;;;;;1.50;1.40;;;18.40;37.50;;;;;;5040949;28;20225;-58
2022/04/01 09:54:51;;;;;;;3.30;1.40;;;18.40;37.50;;;;;;5036113;28;20437;-59
2022/04/01 09:57:24;;;;;;;1.50;1.40;;;18.40;37.50;;;;;;5036321;28;20796;-59
2022/04/01 09:59:51;;;;;;;1.80;1.70;;;18.40;37.60;;;;;;5039811;28;20458;-58
2022/04/01 10:02:17;;;;;;;4.13;1.77;;;18.40;37.60;;;;;;5036342;28;20511;-59
2022/04/01 10:04:43;;;;;;;1.40;1.30;;;18.40;37.60;;;;;;5037030;28;20860;-58
2022/04/01 10:07:10;;;;;;;1.53;1.43;;;18.40;37.60;;;;;;5037513;28;20237;-58
2022/04/01 10:09:37;;;;;;;1.70;1.60;;;18.40;37.60;;;;;;5038175;28;20219;-59
2022/04/01 10:12:09;;;;;;;3.13;1.50;;;18.40;37.60;;;;;;5036087;28;20436;-58
2022/04/01 10:14:38;;;;;;;1.50;1.40;;;18.40;37.60;;;;;;5038406;28;20447;-58
2022/04/01 10:17:05;;;;;;;1.50;1.40;;;18.40;38.30;;;;;;5042439;28;20430;-58
2022/04/01 10:19:34;;;;;;;1.53;1.40;;;18.40;37.60;;;;;;5032601;28;20450;-59
2022/04/01 10:22:00;;;;;;;1.53;1.40;;;18.30;37.50;;;;;;5039247;28;20456;-58
2022/04/01 10:24:41;;;;;;;1.57;1.47;;;18.30;37.50;;;;;;5036558;28;20463;-58
2022/04/01 10:27:15;;;;;;;1.47;1.37;;;18.30;37.40;;;;;;5035510;28;20235;-58
2022/04/01 10:29:43;;;;;;;1.30;1.20;;;18.30;37.50;;;;;;5039134;28;20591;-58
2022/04/01 10:32:29;;;;;;;1.40;1.30;;;18.30;37.50;;;;;;5039399;28;20944;-58
2022/04/01 10:34:57;;;;;;;1.50;1.40;;;18.30;37.50;;;;;;5040909;28;20421;-57
2022/04/01 10:37:25;;;;;;;1.67;1.57;;;18.30;37.50;;;;;;5038458;28;20551;-58
2022/04/01 10:39:53;;;;;;;1.60;1.50;;;18.30;37.50;;;;;;5039265;28;20451;-58
2022/04/01 10:42:24;;;;;;;1.50;1.20;;;18.30;37.50;;;;;;5043383;28;20509;-58
2022/04/01 10:44:55;;;;;;;1.60;1.50;;;18.30;37.50;;;;;;5043332;28;20462;-58
2022/04/01 10:47:24;;;;;;;1.40;1.30;;;18.30;37.50;;;;;;5041058;28;20418;-58
2022/04/01 10:52:35;;;;;;;1.83;1.73;;;18.30;37.40;;;;;;5038646;28;20521;-59
2022/04/01 10:55:03;;;;;;;1.40;1.30;;;18.30;37.40;;;;;;5043006;28;21057;-58
2022/04/01 10:57:31;;;;;;;2.23;1.70;;;18.30;37.40;;;;;;5043950;28;20239;-58
2022/04/01 11:00:04;;;;;;;1.73;1.50;;;18.30;37.40;;;;;;5040302;28;20430;-58
2022/04/01 11:02:29;;;;;;;1.47;1.37;;;18.30;37.40;;;;;;5041874;28;20424;-59
2022/04/01 11:04:55;;;;;;;1.47;1.37;;;18.30;37.30;;;;;;5043578;28;20498;-60
2022/04/01 11:07:23;;;;;;;1.63;1.53;;;18.30;37.30;;;;;;5039237;28;20219;-60
2022/04/01 11:09:56;;;;;;;1.50;1.40;;;18.30;37.30;;;;;;5041824;28;20237;-59
2022/04/01 11:12:30;;;;;;;1.57;1.47;;;18.30;37.30;;;;;;5037981;28;20613;-59
2022/04/01 11:14:59;;;;;;;1.70;1.60;;;18.30;37.30;;;;;;5039150;28;20418;-58
2022/04/01 11:17:34;;;;;;;2.07;1.97;;;18.30;37.30;;;;;;5040778;28;20514;-59
2022/04/01 11:20:18;;;;;;;1.60;1.50;;;18.30;37.30;;;;;;5046298;28;20484;-59
2022/04/01 11:22:52;;;;;;;1.40;1.30;;;18.30;37.30;;;;;;5043700;28;20486;-58
2022/04/01 11:25:33;;;;;;;3.80;1.53;;;18.30;37.30;;;;;;5039694;28;20537;-59
2022/04/01 11:28:01;;;;;;;2.03;1.40;;;18.30;37.30;;;;;;5038008;28;21032;-59
2022/04/01 11:30:35;;;;;;;1.93;1.30;;;18.30;37.30;;;;;;5037435;28;20453;-59
2022/04/01 11:33:12;;;;;;;1.50;1.40;;;18.30;37.30;;;;;;5038432;28;20422;-58
2022/04/01 11:35:40;;;;;;;1.53;1.43;;;18.30;37.30;;;;;;5038976;28;20421;-58
2022/04/01 11:38:08;;;;;;;1.57;1.47;;;18.30;37.30;;;;;;5045057;28;20478;-58
2022/04/01 11:40:36;;;;;;;1.93;1.73;;;18.30;37.30;;;;;;5044381;28;20419;-58
2022/04/01 11:43:19;;;;;;;1.37;1.27;;;18.30;37.20;;;;;;5041325;28;20923;-60
2022/04/01 11:45:54;;;;;;;1.57;1.47;;;18.30;37.20;;;;;;5036901;28;20462;-59
2022/04/01 11:48:21;;;;;;;1.50;1.40;;;18.30;37.30;;;;;;5042077;28;20787;-59
2022/04/01 11:50:54;;;;;;;1.90;1.30;;;18.30;37.20;;;;;;5037734;28;20472;-59
2022/04/01 11:53:56;;;;;;;1.50;1.40;;;18.30;37.20;;;;;;5040540;28;20946;-59
2022/04/01 11:56:25;;;;;;;1.53;1.43;;;18.30;37.20;;;;;;5037571;28;20473;-59
2022/04/01 11:58:55;;;;;;;1.40;1.30;;;18.30;37.20;;;;;;5041282;28;20943;-58
2022/04/01 12:01:23;;;;;;;1.50;1.40;;;18.30;37.20;;;;;;5039441;28;20478;-60
2022/04/01 12:03:49;;;;;;;1.40;1.30;;;18.30;37.20;;;;;;5043310;28;20980;-58
2022/04/01 12:09:05;;;;;;;1.40;1.30;;;18.30;37.20;;;;;;5040609;28;20230;-58
2022/04/01 12:11:42;;;;;;;1.60;1.50;;;18.30;37.10;;;;;;5040670;28;20510;-58
2022/04/01 12:14:08;;;;;;;1.70;1.60;;;18.30;37.10;;;;;;5043183;28;20418;-60
2022/04/01 12:16:39;;;;;;;1.50;1.40;;;18.30;37.10;;;;;;5041464;28;20484;-58
2022/04/01 12:19:04;;;;;;;1.70;1.60;;;18.30;37.10;;;;;;5040531;28;20464;-58
2022/04/01 12:21:30;;;;;;;4.00;1.70;;;18.30;37.10;;;;;;5037987;28;20411;-59
2022/04/01 12:23:56;;;;;;;1.67;1.57;;;18.30;37.10;;;;;;5038900;28;20234;-60
2022/04/01 12:26:26;;;;;;;1.77;1.60;;;18.30;37.10;;;;;;5039423;28;20222;-58
2022/04/01 12:28:52;;;;;;;1.57;1.47;;;18.30;37.00;;;;;;5040659;28;20223;-60
2022/04/01 12:31:26;;;;;;;1.37;1.27;;;18.30;37.00;;;;;;5037249;28;20477;-59
2022/04/01 12:33:55;;;;;;;1.63;1.50;;;18.30;36.90;;;;;;5039111;28;20460;-58
2022/04/01 12:36:32;;;;;;;1.60;1.50;;;18.30;37.00;;;;;;5040641;28;20460;-60
2022/04/01 12:39:15;;;;;;;1.40;1.30;;;18.30;37.00;;;;;;5040062;28;20422;-59
2022/04/01 12:41:59;;;;;;;1.30;1.20;;;18.30;36.90;;;;;;5038415;28;20468;-59
2022/04/01 12:44:27;;;;;;;1.67;1.57;;;18.30;36.90;;;;;;5040187;28;20411;-59
2022/04/01 12:46:55;;;;;;;1.60;1.50;;;18.30;36.90;;;;;;5039360;28;20414;-59
2022/04/01 12:49:25;;;;;;;1.40;1.30;;;18.30;36.90;;;;;;5038003;28;20426;-60
2022/04/01 12:52:02;;;;;;;1.50;1.40;;;18.30;36.90;;;;;;5040069;28;20498;-59
2022/04/01 12:54:31;;;;;;;1.87;1.77;;;18.30;36.90;;;;;;5042744;28;20430;-58
2022/04/01 12:56:59;;;;;;;1.40;1.30;;;18.30;36.90;;;;;;5041288;28;21000;-58
2022/04/01 12:59:26;;;;;;;1.67;1.57;;;18.30;36.90;;;;;;5039633;28;20456;-59
2022/04/01 13:02:04;;;;;;;1.50;1.40;;;18.30;37.00;;;;;;5040748;28;20836;-58
2022/04/01 13:04:42;;;;;;;4.10;1.40;;;18.30;36.90;;;;;;5038493;28;20426;-60
2022/04/01 13:07:18;;;;;;;1.63;1.53;;;18.30;36.90;;;;;;5036271;28;20441;-58
2022/04/01 13:10:06;;;;;;;2.03;1.93;;;18.30;36.90;;;;;;5039390;28;20439;-61
2022/04/01 13:12:31;;;;;;;1.40;1.30;;;18.30;36.80;;;;;;5039509;28;20914;-59